sensor_id;sensor_type;location;lat;lon;timestamp;temperature;humidity
50738;DHT22;36703;48.154;17.126;2024-02-26T00:01:18;10.90;56.20
50738;DHT22;36703;48.154;17.126;2024-02-26T00:05:19;10.90;56.40
50738;DHT22;36703;48.154;17.126;2024-02-26T00:09:21;10.80;56.60
50738;DHT22;36703;48.154;17.126;2024-02-26T00:13:22;10.70;56.80
50738;DHT22;36703;48.154;17.126;2024-02-26T00:17:24;10.70;56.90
50738;DHT22;36703;48.154;17.126;2024-02-26T00:21:25;10.90;57.20
50738;DHT22;36703;48.154;17.126;2024-02-26T00:25:27;10.50;57.50
50738;DHT22;36703;48.154;17.126;2024-02-26T00:29:28;10.50;57.70
50738;DHT22;36703;48.154;17.126;2024-02-26T00:33:32;10.60;57.40
50738;DHT22;36703;48.154;17.126;2024-02-26T00:37:34;10.50;57.50
50738;DHT22;36703;48.154;17.126;2024-02-26T00:41:38;10.50;57.40
50738;DHT22;36703;48.154;17.126;2024-02-26T00:45:42;10.50;57.70
50738;DHT22;36703;48.154;17.126;2024-02-26T00:49:44;10.40;58.00
50738;DHT22;36703;48.154;17.126;2024-02-26T00:53:45;10.30;58.30
50738;DHT22;36703;48.154;17.126;2024-02-26T00:57:46;10.30;58.50
50738;DHT22;36703;48.154;17.126;2024-02-26T01:01:48;10.20;58.60
50738;DHT22;36703;48.154;17.126;2024-02-26T01:05:49;10.30;58.50
50738;DHT22;36703;48.154;17.126;2024-02-26T01:09:50;10.30;58.40
50738;DHT22;36703;48.154;17.126;2024-02-26T01:13:52;10.30;58.50
50738;DHT22;36703;48.154;17.126;2024-02-26T01:17:57;10.30;58.70
50738;DHT22;36703;48.154;17.126;2024-02-26T01:21:59;10.30;58.60
50738;DHT22;36703;48.154;17.126;2024-02-26T01:26:00;10.30;58.60
50738;DHT22;36703;48.154;17.126;2024-02-26T01:30:05;10.40;58.50
50738;DHT22;36703;48.154;17.126;2024-02-26T01:34:07;10.40;58.50
50738;DHT22;36703;48.154;17.126;2024-02-26T01:38:08;10.20;58.70
50738;DHT22;36703;48.154;17.126;2024-02-26T01:42:09;10.20;58.90
50738;DHT22;36703;48.154;17.126;2024-02-26T01:46:11;10.60;59.10
50738;DHT22;36703;48.154;17.126;2024-02-26T01:50:17;10.20;59.00
50738;DHT22;36703;48.154;17.126;2024-02-26T01:54:19;10.20;59.00
50738;DHT22;36703;48.154;17.126;2024-02-26T01:58:21;10.20;59.00
50738;DHT22;36703;48.154;17.126;2024-02-26T02:02:23;10.10;59.10
50738;DHT22;36703;48.154;17.126;2024-02-26T02:06:24;10.10;59.20
50738;DHT22;36703;48.154;17.126;2024-02-26T02:10:26;10.10;59.30
50738;DHT22;36703;48.154;17.126;2024-02-26T02:14:30;10.10;59.30
50738;DHT22;36703;48.154;17.126;2024-02-26T02:18:32;10.10;59.20
50738;DHT22;36703;48.154;17.126;2024-02-26T02:22:33;10.20;59.20
50738;DHT22;36703;48.154;17.126;2024-02-26T02:26:35;10.20;59.20
50738;DHT22;36703;48.154;17.126;2024-02-26T02:30:36;10.20;59.20
50738;DHT22;36703;48.154;17.126;2024-02-26T02:34:39;10.20;59.20
50738;DHT22;36703;48.154;17.126;2024-02-26T02:38:48;10.20;59.20
50738;DHT22;36703;48.154;17.126;2024-02-26T02:42:53;10.10;59.20
50738;DHT22;36703;48.154;17.126;2024-02-26T02:46:54;10.00;59.30
50738;DHT22;36703;48.154;17.126;2024-02-26T02:50:55;10.00;59.60
50738;DHT22;36703;48.154;17.126;2024-02-26T02:54:57;10.00;59.60
50738;DHT22;36703;48.154;17.126;2024-02-26T02:58:59;10.10;59.60
50738;DHT22;36703;48.154;17.126;2024-02-26T03:03:00;10.10;59.40
50738;DHT22;36703;48.154;17.126;2024-02-26T03:07:01;10.80;59.90
50738;DHT22;36703;48.154;17.126;2024-02-26T03:11:03;10.20;59.50
50738;DHT22;36703;48.154;17.126;2024-02-26T03:15:05;10.20;59.50
50738;DHT22;36703;48.154;17.126;2024-02-26T03:19:07;10.10;59.70
50738;DHT22;36703;48.154;17.126;2024-02-26T03:23:08;10.10;59.80
50738;DHT22;36703;48.154;17.126;2024-02-26T03:27:13;10.00;59.80
50738;DHT22;36703;48.154;17.126;2024-02-26T03:31:14;11.00;60.40
50738;DHT22;36703;48.154;17.126;2024-02-26T03:35:15;9.90;60.00
50738;DHT22;36703;48.154;17.126;2024-02-26T03:39:17;10.00;60.10
50738;DHT22;36703;48.154;17.126;2024-02-26T03:43:18;9.80;60.20
50738;DHT22;36703;48.154;17.126;2024-02-26T03:47:19;9.80;60.40
50738;DHT22;36703;48.154;17.126;2024-02-26T03:51:21;9.90;60.40
50738;DHT22;36703;48.154;17.126;2024-02-26T03:55:22;9.90;60.30
50738;DHT22;36703;48.154;17.126;2024-02-26T03:59:26;10.00;60.10
50738;DHT22;36703;48.154;17.126;2024-02-26T04:03:27;9.90;60.20
50738;DHT22;36703;48.154;17.126;2024-02-26T04:07:29;9.90;60.40
50738;DHT22;36703;48.154;17.126;2024-02-26T04:11:30;9.80;60.50
50738;DHT22;36703;48.154;17.126;2024-02-26T04:15:32;9.80;60.70
50738;DHT22;36703;48.154;17.126;2024-02-26T04:19:33;9.80;60.80
50738;DHT22;36703;48.154;17.126;2024-02-26T04:23:35;9.80;60.60
50738;DHT22;36703;48.154;17.126;2024-02-26T04:27:36;9.80;60.80
50738;DHT22;36703;48.154;17.126;2024-02-26T04:31:38;9.80;60.80
50738;DHT22;36703;48.154;17.126;2024-02-26T04:35:40;9.80;60.80
50738;DHT22;36703;48.154;17.126;2024-02-26T04:39:41;9.80;60.80
50738;DHT22;36703;48.154;17.126;2024-02-26T04:43:43;9.80;60.90
50738;DHT22;36703;48.154;17.126;2024-02-26T04:47:44;9.80;60.90
50738;DHT22;36703;48.154;17.126;2024-02-26T04:51:46;9.70;60.90
50738;DHT22;36703;48.154;17.126;2024-02-26T04:55:49;9.10;60.90
50738;DHT22;36703;48.154;17.126;2024-02-26T04:59:50;9.60;61.50
50738;DHT22;36703;48.154;17.126;2024-02-26T05:03:51;9.60;61.80
50738;DHT22;36703;48.154;17.126;2024-02-26T05:07:53;9.60;61.70
50738;DHT22;36703;48.154;17.126;2024-02-26T05:11:54;9.60;61.70
50738;DHT22;36703;48.154;17.126;2024-02-26T05:15:56;9.60;61.80
50738;DHT22;36703;48.154;17.126;2024-02-26T05:19:57;9.60;61.90
50738;DHT22;36703;48.154;17.126;2024-02-26T05:23:58;9.60;61.80
50738;DHT22;36703;48.154;17.126;2024-02-26T05:28:00;9.60;61.80
50738;DHT22;36703;48.154;17.126;2024-02-26T05:32:01;9.60;61.70
50738;DHT22;36703;48.154;17.126;2024-02-26T05:36:02;10.30;62.20
50738;DHT22;36703;48.154;17.126;2024-02-26T05:40:05;9.60;61.90
50738;DHT22;36703;48.154;17.126;2024-02-26T05:44:07;9.60;62.00
50738;DHT22;36703;48.154;17.126;2024-02-26T05:48:11;9.50;62.00
50738;DHT22;36703;48.154;17.126;2024-02-26T05:52:12;9.50;62.10
50738;DHT22;36703;48.154;17.126;2024-02-26T05:56:13;9.60;62.10
50738;DHT22;36703;48.154;17.126;2024-02-26T06:00:15;9.50;62.10
50738;DHT22;36703;48.154;17.126;2024-02-26T06:04:17;9.50;62.20
50738;DHT22;36703;48.154;17.126;2024-02-26T06:08:18;9.50;62.20
50738;DHT22;36703;48.154;17.126;2024-02-26T06:12:20;9.50;62.40
50738;DHT22;36703;48.154;17.126;2024-02-26T06:16:21;9.50;62.40
50738;DHT22;36703;48.154;17.126;2024-02-26T06:20:22;9.60;62.40
50738;DHT22;36703;48.154;17.126;2024-02-26T06:24:24;9.60;62.40
50738;DHT22;36703;48.154;17.126;2024-02-26T06:28:25;9.60;62.60
50738;DHT22;36703;48.154;17.126;2024-02-26T06:32:27;9.60;62.50
50738;DHT22;36703;48.154;17.126;2024-02-26T06:36:30;9.70;62.60
50738;DHT22;36703;48.154;17.126;2024-02-26T06:40:33;9.70;62.70
50738;DHT22;36703;48.154;17.126;2024-02-26T06:44:34;9.70;62.90
50738;DHT22;36703;48.154;17.126;2024-02-26T06:48:35;9.70;62.70
50738;DHT22;36703;48.154;17.126;2024-02-26T06:52:37;9.80;62.80
50738;DHT22;36703;48.154;17.126;2024-02-26T06:56:39;10.70;63.30
50738;DHT22;36703;48.154;17.126;2024-02-26T07:00:40;10.00;62.60
50738;DHT22;36703;48.154;17.126;2024-02-26T07:04:42;10.60;63.00
50738;DHT22;36703;48.154;17.126;2024-02-26T07:08:43;10.20;62.70
50738;DHT22;36703;48.154;17.126;2024-02-26T07:12:45;10.30;62.70
50738;DHT22;36703;48.154;17.126;2024-02-26T07:16:46;10.30;62.70
50738;DHT22;36703;48.154;17.126;2024-02-26T07:20:47;10.50;62.50
50738;DHT22;36703;48.154;17.126;2024-02-26T07:24:49;10.60;62.30
50738;DHT22;36703;48.154;17.126;2024-02-26T07:28:50;10.70;62.40
50738;DHT22;36703;48.154;17.126;2024-02-26T07:32:51;10.80;62.00
50738;DHT22;36703;48.154;17.126;2024-02-26T07:36:53;11.00;61.90
50738;DHT22;36703;48.154;17.126;2024-02-26T07:40:55;11.10;61.60
50738;DHT22;36703;48.154;17.126;2024-02-26T07:44:57;11.30;61.40
50738;DHT22;36703;48.154;17.126;2024-02-26T07:48:59;11.60;61.10
50738;DHT22;36703;48.154;17.126;2024-02-26T07:53:00;11.80;60.60
50738;DHT22;36703;48.154;17.126;2024-02-26T07:57:02;12.10;60.40
50738;DHT22;36703;48.154;17.126;2024-02-26T08:01:06;12.20;60.00
50738;DHT22;36703;48.154;17.126;2024-02-26T08:05:08;12.40;60.00
50738;DHT22;36703;48.154;17.126;2024-02-26T08:09:09;12.60;59.90
50738;DHT22;36703;48.154;17.126;2024-02-26T08:13:10;12.70;59.70
50738;DHT22;36703;48.154;17.126;2024-02-26T08:17:12;13.00;59.30
50738;DHT22;36703;48.154;17.126;2024-02-26T08:21:13;13.10;59.10
50738;DHT22;36703;48.154;17.126;2024-02-26T08:25:14;13.30;58.80
50738;DHT22;36703;48.154;17.126;2024-02-26T08:29:17;13.40;58.30
50738;DHT22;36703;48.154;17.126;2024-02-26T08:33:18;13.80;58.10
50738;DHT22;36703;48.154;17.126;2024-02-26T08:37:20;14.00;57.60
50738;DHT22;36703;48.154;17.126;2024-02-26T08:41:21;14.20;57.20
50738;DHT22;36703;48.154;17.126;2024-02-26T08:45:22;14.40;56.80
50738;DHT22;36703;48.154;17.126;2024-02-26T08:49:24;14.50;56.50
50738;DHT22;36703;48.154;17.126;2024-02-26T08:53:25;14.80;56.10
50738;DHT22;36703;48.154;17.126;2024-02-26T08:57:27;15.10;55.70
50738;DHT22;36703;48.154;17.126;2024-02-26T09:01:29;15.30;55.00
50738;DHT22;36703;48.154;17.126;2024-02-26T09:05:32;15.50;54.60
50738;DHT22;36703;48.154;17.126;2024-02-26T09:09:33;15.80;54.20
50738;DHT22;36703;48.154;17.126;2024-02-26T09:13:35;15.80;52.90
50738;DHT22;36703;48.154;17.126;2024-02-26T09:17:36;15.90;52.80
50738;DHT22;36703;48.154;17.126;2024-02-26T09:21:41;16.30;52.40
50738;DHT22;36703;48.154;17.126;2024-02-26T09:25:43;16.80;51.40
50738;DHT22;36703;48.154;17.126;2024-02-26T09:29:45;17.00;50.00
50738;DHT22;36703;48.154;17.126;2024-02-26T09:33:47;17.20;49.30
50738;DHT22;36703;48.154;17.126;2024-02-26T09:37:49;17.60;47.90
50738;DHT22;36703;48.154;17.126;2024-02-26T09:41:50;17.70;46.40
50738;DHT22;36703;48.154;17.126;2024-02-26T09:45:55;18.20;45.80
50738;DHT22;36703;48.154;17.126;2024-02-26T09:49:56;18.60;44.80
50738;DHT22;36703;48.154;17.126;2024-02-26T09:53:59;18.80;43.50
50738;DHT22;36703;48.154;17.126;2024-02-26T09:58:01;18.70;42.10
50738;DHT22;36703;48.154;17.126;2024-02-26T10:02:07;18.70;41.60
50738;DHT22;36703;48.154;17.126;2024-02-26T10:06:11;19.20;41.30
50738;DHT22;36703;48.154;17.126;2024-02-26T10:10:15;19.70;40.30
50738;DHT22;36703;48.154;17.126;2024-02-26T10:14:18;20.10;39.50
50738;DHT22;36703;48.154;17.126;2024-02-26T10:18:19;20.70;38.50
50738;DHT22;36703;48.154;17.126;2024-02-26T10:22:20;21.00;37.40
50738;DHT22;36703;48.154;17.126;2024-02-26T10:26:23;21.20;36.70
50738;DHT22;36703;48.154;17.126;2024-02-26T10:30:24;21.90;36.40
50738;DHT22;36703;48.154;17.126;2024-02-26T10:34:27;22.50;35.10
50738;DHT22;36703;48.154;17.126;2024-02-26T10:38:29;22.30;34.20
50738;DHT22;36703;48.154;17.126;2024-02-26T10:42:31;22.30;33.30
50738;DHT22;36703;48.154;17.126;2024-02-26T10:46:32;22.30;32.90
50738;DHT22;36703;48.154;17.126;2024-02-26T10:50:33;22.50;32.70
50738;DHT22;36703;48.154;17.126;2024-02-26T10:54:35;22.70;31.70
50738;DHT22;36703;48.154;17.126;2024-02-26T10:58:38;22.70;31.60
50738;DHT22;36703;48.154;17.126;2024-02-26T11:02:40;23.00;31.30
50738;DHT22;36703;48.154;17.126;2024-02-26T11:06:42;22.40;31.30
50738;DHT22;36703;48.154;17.126;2024-02-26T11:10:45;22.50;31.60
50738;DHT22;36703;48.154;17.126;2024-02-26T11:14:49;22.80;31.60
50738;DHT22;36703;48.154;17.126;2024-02-26T11:18:53;22.70;31.40
50738;DHT22;36703;48.154;17.126;2024-02-26T11:22:56;22.70;31.50
50738;DHT22;36703;48.154;17.126;2024-02-26T11:26:58;22.60;31.30
50738;DHT22;36703;48.154;17.126;2024-02-26T11:31:02;22.80;31.10
50738;DHT22;36703;48.154;17.126;2024-02-26T11:35:05;22.90;30.40
50738;DHT22;36703;48.154;17.126;2024-02-26T11:39:08;22.70;30.60
50738;DHT22;36703;48.154;17.126;2024-02-26T11:43:09;22.40;30.10
50738;DHT22;36703;48.154;17.126;2024-02-26T11:47:17;22.20;30.30
50738;DHT22;36703;48.154;17.126;2024-02-26T11:51:24;22.30;30.40
50738;DHT22;36703;48.154;17.126;2024-02-26T11:55:31;22.70;30.60
50738;DHT22;36703;48.154;17.126;2024-02-26T11:59:39;22.90;30.00
50738;DHT22;36703;48.154;17.126;2024-02-26T12:03:42;22.50;29.90
50738;DHT22;36703;48.154;17.126;2024-02-26T12:07:44;22.30;29.90
50738;DHT22;36703;48.154;17.126;2024-02-26T12:11:55;22.90;29.80
50738;DHT22;36703;48.154;17.126;2024-02-26T12:15:57;23.10;29.70
50738;DHT22;36703;48.154;17.126;2024-02-26T12:20:08;23.20;29.80
50738;DHT22;36703;48.154;17.126;2024-02-26T12:24:11;23.40;29.70
50738;DHT22;36703;48.154;17.126;2024-02-26T12:28:16;23.00;29.40
50738;DHT22;36703;48.154;17.126;2024-02-26T12:32:18;22.30;30.00
50738;DHT22;36703;48.154;17.126;2024-02-26T12:36:20;22.30;30.10
50738;DHT22;36703;48.154;17.126;2024-02-26T12:40:22;22.40;29.60
50738;DHT22;36703;48.154;17.126;2024-02-26T12:44:26;22.30;29.60
50738;DHT22;36703;48.154;17.126;2024-02-26T12:48:28;22.40;29.70
50738;DHT22;36703;48.154;17.126;2024-02-26T12:52:30;22.30;29.70
50738;DHT22;36703;48.154;17.126;2024-02-26T12:56:33;22.40;29.80
50738;DHT22;36703;48.154;17.126;2024-02-26T13:00:35;22.60;29.60
50738;DHT22;36703;48.154;17.126;2024-02-26T13:04:38;23.20;29.40
50738;DHT22;36703;48.154;17.126;2024-02-26T13:08:40;23.10;29.20
50738;DHT22;36703;48.154;17.126;2024-02-26T13:12:45;22.60;29.40
50738;DHT22;36703;48.154;17.126;2024-02-26T13:16:56;22.10;29.50
50738;DHT22;36703;48.154;17.126;2024-02-26T13:21:07;21.50;29.80
50738;DHT22;36703;48.154;17.126;2024-02-26T13:25:10;20.90;30.30
50738;DHT22;36703;48.154;17.126;2024-02-26T13:29:18;20.80;30.60
50738;DHT22;36703;48.154;17.126;2024-02-26T13:33:19;20.80;30.60
50738;DHT22;36703;48.154;17.126;2024-02-26T13:37:21;20.70;30.80
50738;DHT22;36703;48.154;17.126;2024-02-26T13:41:23;20.40;31.00
50738;DHT22;36703;48.154;17.126;2024-02-26T13:45:24;20.00;31.10
50738;DHT22;36703;48.154;17.126;2024-02-26T13:49:25;19.70;31.10
50738;DHT22;36703;48.154;17.126;2024-02-26T13:53:27;19.50;31.40
50738;DHT22;36703;48.154;17.126;2024-02-26T13:57:28;19.40;31.70
50738;DHT22;36703;48.154;17.126;2024-02-26T14:01:30;19.30;32.00
50738;DHT22;36703;48.154;17.126;2024-02-26T14:05:34;19.20;32.30
50738;DHT22;36703;48.154;17.126;2024-02-26T14:09:35;19.10;32.60
50738;DHT22;36703;48.154;17.126;2024-02-26T14:13:37;19.30;32.70
50738;DHT22;36703;48.154;17.126;2024-02-26T14:17:38;19.50;32.50
50738;DHT22;36703;48.154;17.126;2024-02-26T14:21:39;19.30;32.10
50738;DHT22;36703;48.154;17.126;2024-02-26T14:25:41;19.10;32.10
50738;DHT22;36703;48.154;17.126;2024-02-26T14:29:45;18.80;32.10
50738;DHT22;36703;48.154;17.126;2024-02-26T14:33:47;18.70;31.80
50738;DHT22;36703;48.154;17.126;2024-02-26T14:37:49;18.70;31.90
50738;DHT22;36703;48.154;17.126;2024-02-26T14:41:51;18.70;32.10
50738;DHT22;36703;48.154;17.126;2024-02-26T14:45:52;18.50;32.30
50738;DHT22;36703;48.154;17.126;2024-02-26T14:49:54;18.40;32.50
50738;DHT22;36703;48.154;17.126;2024-02-26T14:53:55;18.20;32.80
50738;DHT22;36703;48.154;17.126;2024-02-26T14:57:56;18.20;33.20
50738;DHT22;36703;48.154;17.126;2024-02-26T15:01:58;18.00;33.30
50738;DHT22;36703;48.154;17.126;2024-02-26T15:06:02;18.00;33.50
50738;DHT22;36703;48.154;17.126;2024-02-26T15:10:04;17.80;33.60
50738;DHT22;36703;48.154;17.126;2024-02-26T15:14:06;17.80;33.90
50738;DHT22;36703;48.154;17.126;2024-02-26T15:18:08;17.70;34.20
50738;DHT22;36703;48.154;17.126;2024-02-26T15:22:12;17.70;34.40
50738;DHT22;36703;48.154;17.126;2024-02-26T15:26:13;17.50;34.40
50738;DHT22;36703;48.154;17.126;2024-02-26T15:30:15;17.50;34.60
50738;DHT22;36703;48.154;17.126;2024-02-26T15:34:17;17.40;34.80
50738;DHT22;36703;48.154;17.126;2024-02-26T15:38:18;17.30;34.80
50738;DHT22;36703;48.154;17.126;2024-02-26T15:42:19;17.20;34.90
50738;DHT22;36703;48.154;17.126;2024-02-26T15:46:21;17.10;35.00
50738;DHT22;36703;48.154;17.126;2024-02-26T15:50:22;17.00;35.20
50738;DHT22;36703;48.154;17.126;2024-02-26T15:54:24;16.90;35.40
50738;DHT22;36703;48.154;17.126;2024-02-26T15:58:25;16.80;35.60
50738;DHT22;36703;48.154;17.126;2024-02-26T16:02:29;16.70;35.60
50738;DHT22;36703;48.154;17.126;2024-02-26T16:06:31;16.70;35.70
50738;DHT22;36703;48.154;17.126;2024-02-26T16:10:35;16.70;35.80
50738;DHT22;36703;48.154;17.126;2024-02-26T16:14:49;16.60;35.90
50738;DHT22;36703;48.154;17.126;2024-02-26T16:18:51;16.50;36.00
50738;DHT22;36703;48.154;17.126;2024-02-26T16:22:52;16.40;35.90
50738;DHT22;36703;48.154;17.126;2024-02-26T16:26:54;16.30;36.00
50738;DHT22;36703;48.154;17.126;2024-02-26T16:30:55;16.30;36.10
50738;DHT22;36703;48.154;17.126;2024-02-26T16:34:58;16.20;36.20
50738;DHT22;36703;48.154;17.126;2024-02-26T16:39:00;16.20;36.30
50738;DHT22;36703;48.154;17.126;2024-02-26T16:43:02;16.20;36.40
50738;DHT22;36703;48.154;17.126;2024-02-26T16:47:03;16.10;36.40
50738;DHT22;36703;48.154;17.126;2024-02-26T16:51:06;16.10;36.60
50738;DHT22;36703;48.154;17.126;2024-02-26T16:55:08;16.00;36.70
50738;DHT22;36703;48.154;17.126;2024-02-26T16:59:09;16.00;36.80
50738;DHT22;36703;48.154;17.126;2024-02-26T17:03:11;16.00;36.90
50738;DHT22;36703;48.154;17.126;2024-02-26T17:07:12;15.90;36.90
50738;DHT22;36703;48.154;17.126;2024-02-26T17:11:13;15.90;37.10
50738;DHT22;36703;48.154;17.126;2024-02-26T17:15:16;15.90;37.30
50738;DHT22;36703;48.154;17.126;2024-02-26T17:19:18;15.80;37.50
50738;DHT22;36703;48.154;17.126;2024-02-26T17:23:19;15.70;37.70
50738;DHT22;36703;48.154;17.126;2024-02-26T17:27:20;15.70;37.80
50738;DHT22;36703;48.154;17.126;2024-02-26T17:31:25;15.70;37.90
50738;DHT22;36703;48.154;17.126;2024-02-26T17:35:26;15.70;38.10
50738;DHT22;36703;48.154;17.126;2024-02-26T17:39:28;15.60;38.10
50738;DHT22;36703;48.154;17.126;2024-02-26T17:43:29;15.60;38.30
50738;DHT22;36703;48.154;17.126;2024-02-26T17:47:31;15.50;38.30
50738;DHT22;36703;48.154;17.126;2024-02-26T17:51:32;15.50;38.40
50738;DHT22;36703;48.154;17.126;2024-02-26T17:55:34;15.50;38.40
50738;DHT22;36703;48.154;17.126;2024-02-26T17:59:35;15.50;38.50
50738;DHT22;36703;48.154;17.126;2024-02-26T18:03:36;15.50;38.50
50738;DHT22;36703;48.154;17.126;2024-02-26T18:07:38;15.50;38.60
50738;DHT22;36703;48.154;17.126;2024-02-26T18:11:39;15.40;38.60
50738;DHT22;36703;48.154;17.126;2024-02-26T18:15:44;15.40;38.70
50738;DHT22;36703;48.154;17.126;2024-02-26T18:19:45;15.50;38.70
50738;DHT22;36703;48.154;17.126;2024-02-26T18:23:46;15.50;38.70
50738;DHT22;36703;48.154;17.126;2024-02-26T18:27:48;15.40;38.70
50738;DHT22;36703;48.154;17.126;2024-02-26T18:31:50;15.40;38.80
50738;DHT22;36703;48.154;17.126;2024-02-26T18:35:52;15.40;38.90
50738;DHT22;36703;48.154;17.126;2024-02-26T18:39:53;15.40;39.00
50738;DHT22;36703;48.154;17.126;2024-02-26T18:43:55;15.30;39.10
50738;DHT22;36703;48.154;17.126;2024-02-26T18:47:57;15.30;39.10
50738;DHT22;36703;48.154;17.126;2024-02-26T18:51:58;15.30;39.20
50738;DHT22;36703;48.154;17.126;2024-02-26T18:55:59;15.20;39.20
50738;DHT22;36703;48.154;17.126;2024-02-26T19:00:01;15.10;39.30
50738;DHT22;36703;48.154;17.126;2024-02-26T19:04:05;15.00;39.50
50738;DHT22;36703;48.154;17.126;2024-02-26T19:08:06;15.10;39.60
50738;DHT22;36703;48.154;17.126;2024-02-26T19:12:09;14.90;39.80
50738;DHT22;36703;48.154;17.126;2024-02-26T19:16:10;14.80;40.10
50738;DHT22;36703;48.154;17.126;2024-02-26T19:20:12;14.60;40.80
50738;DHT22;36703;48.154;17.126;2024-02-26T19:24:13;14.50;40.70
50738;DHT22;36703;48.154;17.126;2024-02-26T19:28:17;14.50;40.80
50738;DHT22;36703;48.154;17.126;2024-02-26T19:32:18;14.50;40.80
50738;DHT22;36703;48.154;17.126;2024-02-26T19:36:20;14.50;40.90
50738;DHT22;36703;48.154;17.126;2024-02-26T19:40:21;14.50;40.90
50738;DHT22;36703;48.154;17.126;2024-02-26T19:44:24;14.30;41.10
50738;DHT22;36703;48.154;17.126;2024-02-26T19:48:25;14.20;41.40
50738;DHT22;36703;48.154;17.126;2024-02-26T19:52:27;14.20;41.60
50738;DHT22;36703;48.154;17.126;2024-02-26T19:56:28;14.10;41.70
50738;DHT22;36703;48.154;17.126;2024-02-26T20:00:30;14.10;41.60
50738;DHT22;36703;48.154;17.126;2024-02-26T20:04:31;14.20;41.60
50738;DHT22;36703;48.154;17.126;2024-02-26T20:08:34;14.10;41.70
50738;DHT22;36703;48.154;17.126;2024-02-26T20:12:36;14.00;41.90
50738;DHT22;36703;48.154;17.126;2024-02-26T20:16:37;14.00;42.10
50738;DHT22;36703;48.154;17.126;2024-02-26T20:20:39;14.00;42.10
50738;DHT22;36703;48.154;17.126;2024-02-26T20:24:40;14.10;42.00
50738;DHT22;36703;48.154;17.126;2024-02-26T20:28:42;14.20;42.00
50738;DHT22;36703;48.154;17.126;2024-02-26T20:32:43;14.20;41.90
50738;DHT22;36703;48.154;17.126;2024-02-26T20:36:44;14.20;42.10
50738;DHT22;36703;48.154;17.126;2024-02-26T20:40:46;14.10;42.50
50738;DHT22;36703;48.154;17.126;2024-02-26T20:44:47;14.00;42.40
50738;DHT22;36703;48.154;17.126;2024-02-26T20:48:49;13.90;42.60
50738;DHT22;36703;48.154;17.126;2024-02-26T20:52:51;13.80;43.00
50738;DHT22;36703;48.154;17.126;2024-02-26T20:56:52;13.60;43.10
50738;DHT22;36703;48.154;17.126;2024-02-26T21:00:54;13.70;43.40
50738;DHT22;36703;48.154;17.126;2024-02-26T21:04:56;13.70;43.20
50738;DHT22;36703;48.154;17.126;2024-02-26T21:08:59;13.70;43.30
50738;DHT22;36703;48.154;17.126;2024-02-26T21:13:00;13.70;43.20
50738;DHT22;36703;48.154;17.126;2024-02-26T21:17:01;13.80;43.20
50738;DHT22;36703;48.154;17.126;2024-02-26T21:21:04;13.80;43.10
50738;DHT22;36703;48.154;17.126;2024-02-26T21:25:06;13.90;43.10
50738;DHT22;36703;48.154;17.126;2024-02-26T21:29:08;14.00;42.90
50738;DHT22;36703;48.154;17.126;2024-02-26T21:33:09;14.00;43.40
50738;DHT22;36703;48.154;17.126;2024-02-26T21:37:10;14.00;42.90
50738;DHT22;36703;48.154;17.126;2024-02-26T21:41:12;14.10;42.80
50738;DHT22;36703;48.154;17.126;2024-02-26T21:45:15;14.10;42.80
50738;DHT22;36703;48.154;17.126;2024-02-26T21:49:21;14.00;42.80
50738;DHT22;36703;48.154;17.126;2024-02-26T21:53:22;14.10;43.00
50738;DHT22;36703;48.154;17.126;2024-02-26T21:57:24;14.00;42.90
50738;DHT22;36703;48.154;17.126;2024-02-26T22:01:25;14.00;43.00
50738;DHT22;36703;48.154;17.126;2024-02-26T22:05:26;14.10;43.00
50738;DHT22;36703;48.154;17.126;2024-02-26T22:09:28;14.10;43.00
50738;DHT22;36703;48.154;17.126;2024-02-26T22:13:29;14.10;42.90
50738;DHT22;36703;48.154;17.126;2024-02-26T22:17:31;14.10;42.90
50738;DHT22;36703;48.154;17.126;2024-02-26T22:21:33;14.10;43.00
50738;DHT22;36703;48.154;17.126;2024-02-26T22:25:35;14.00;43.20
50738;DHT22;36703;48.154;17.126;2024-02-26T22:29:37;14.00;43.20
50738;DHT22;36703;48.154;17.126;2024-02-26T22:33:39;13.90;43.30
50738;DHT22;36703;48.154;17.126;2024-02-26T22:37:40;13.80;43.50
50738;DHT22;36703;48.154;17.126;2024-02-26T22:41:42;13.80;43.70
50738;DHT22;36703;48.154;17.126;2024-02-26T22:45:46;13.80;43.70
50738;DHT22;36703;48.154;17.126;2024-02-26T22:49:48;13.80;43.70
50738;DHT22;36703;48.154;17.126;2024-02-26T22:53:49;13.90;43.60
50738;DHT22;36703;48.154;17.126;2024-02-26T22:57:51;13.90;43.60
50738;DHT22;36703;48.154;17.126;2024-02-26T23:01:52;13.90;43.60
50738;DHT22;36703;48.154;17.126;2024-02-26T23:05:54;13.90;43.60
50738;DHT22;36703;48.154;17.126;2024-02-26T23:09:55;13.80;43.70
50738;DHT22;36703;48.154;17.126;2024-02-26T23:13:56;13.80;43.80
50738;DHT22;36703;48.154;17.126;2024-02-26T23:17:58;13.60;44.00
50738;DHT22;36703;48.154;17.126;2024-02-26T23:21:59;13.40;44.40
50738;DHT22;36703;48.154;17.126;2024-02-26T23:26:01;13.20;44.80
50738;DHT22;36703;48.154;17.126;2024-02-26T23:30:02;13.20;44.90
50738;DHT22;36703;48.154;17.126;2024-02-26T23:34:04;13.10;44.80
50738;DHT22;36703;48.154;17.126;2024-02-26T23:38:06;13.10;45.00
50738;DHT22;36703;48.154;17.126;2024-02-26T23:42:07;13.10;45.10
50738;DHT22;36703;48.154;17.126;2024-02-26T23:46:08;13.10;45.00
50738;DHT22;36703;48.154;17.126;2024-02-26T23:50:10;13.10;44.90
50738;DHT22;36703;48.154;17.126;2024-02-26T23:54:12;13.10;45.00
50738;DHT22;36703;48.154;17.126;2024-02-26T23:58:13;13.00;45.10
